sensor_id;sensor_type;location;lat;lon;timestamp;temperature;humidity
9193;DHT22;4631;49.296;10.560;2022-10-19T00:01:07;12.00;99.90
9193;DHT22;4631;49.296;10.560;2022-10-19T00:03:34;12.00;99.90
9193;DHT22;4631;49.296;10.560;2022-10-19T00:06:08;11.90;99.90
9193;DHT22;4631;49.296;10.560;2022-10-19T00:08:35;11.80;99.90
9193;DHT22;4631;49.296;10.560;2022-10-19T00:11:02;11.80;99.90
9193;DHT22;4631;49.296;10.560;2022-10-19T00:13:28;11.80;99.90
9193;DHT22;4631;49.296;10.560;2022-10-19T00:15:56;11.80;99.90
9193;DHT22;4631;49.296;10.560;2022-10-19T00:18:23;11.80;99.90
9193;DHT22;4631;49.296;10.560;2022-10-19T00:20:49;11.80;99.90
9193;DHT22;4631;49.296;10.560;2022-10-19T00:23:16;11.80;99.90
9193;DHT22;4631;49.296;10.560;2022-10-19T00:25:52;11.80;99.90
9193;DHT22;4631;49.296;10.560;2022-10-19T00:28:19;11.80;99.90
9193;DHT22;4631;49.296;10.560;2022-10-19T00:30:46;11.90;99.90
9193;DHT22;4631;49.296;10.560;2022-10-19T00:33:14;11.90;99.90
9193;DHT22;4631;49.296;10.560;2022-10-19T00:35:45;11.90;99.90
9193;DHT22;4631;49.296;10.560;2022-10-19T00:38:12;11.90;99.90
9193;DHT22;4631;49.296;10.560;2022-10-19T00:40:39;11.90;99.90
9193;DHT22;4631;49.296;10.560;2022-10-19T00:43:07;12.00;99.90
9193;DHT22;4631;49.296;10.560;2022-10-19T00:45:35;11.90;99.90
9193;DHT22;4631;49.296;10.560;2022-10-19T00:48:01;11.90;99.90
9193;DHT22;4631;49.296;10.560;2022-10-19T00:50:29;11.90;99.90
9193;DHT22;4631;49.296;10.560;2022-10-19T00:52:56;12.00;99.90
9193;DHT22;4631;49.296;10.560;2022-10-19T00:55:22;12.00;99.90
9193;DHT22;4631;49.296;10.560;2022-10-19T00:57:49;12.00;99.90
9193;DHT22;4631;49.296;10.560;2022-10-19T01:00:16;12.00;99.90
9193;DHT22;4631;49.296;10.560;2022-10-19T01:02:43;12.10;99.90
9193;DHT22;4631;49.296;10.560;2022-10-19T01:05:09;12.10;99.90
9193;DHT22;4631;49.296;10.560;2022-10-19T01:07:38;12.10;99.90
9193;DHT22;4631;49.296;10.560;2022-10-19T01:10:05;12.10;99.90
9193;DHT22;4631;49.296;10.560;2022-10-19T01:15:27;12.00;99.90
9193;DHT22;4631;49.296;10.560;2022-10-19T01:17:58;12.10;99.90
9193;DHT22;4631;49.296;10.560;2022-10-19T01:20:32;12.10;99.90
9193;DHT22;4631;49.296;10.560;2022-10-19T01:23:13;12.10;99.90
9193;DHT22;4631;49.296;10.560;2022-10-19T01:25:45;12.10;99.90
9193;DHT22;4631;49.296;10.560;2022-10-19T01:28:24;12.10;99.90
9193;DHT22;4631;49.296;10.560;2022-10-19T01:30:57;12.10;99.90
9193;DHT22;4631;49.296;10.560;2022-10-19T01:33:28;12.10;99.90
9193;DHT22;4631;49.296;10.560;2022-10-19T01:36:00;12.00;99.90
9193;DHT22;4631;49.296;10.560;2022-10-19T01:38:31;12.00;99.90
9193;DHT22;4631;49.296;10.560;2022-10-19T01:41:02;12.00;99.90
9193;DHT22;4631;49.296;10.560;2022-10-19T01:43:32;12.00;99.90
9193;DHT22;4631;49.296;10.560;2022-10-19T01:46:05;12.00;99.90
9193;DHT22;4631;49.296;10.560;2022-10-19T01:48:33;12.00;99.90
9193;DHT22;4631;49.296;10.560;2022-10-19T01:51:00;12.00;99.90
9193;DHT22;4631;49.296;10.560;2022-10-19T01:53:30;12.10;99.90
9193;DHT22;4631;49.296;10.560;2022-10-19T01:55:57;12.10;99.90
9193;DHT22;4631;49.296;10.560;2022-10-19T01:58:27;12.10;99.90
9193;DHT22;4631;49.296;10.560;2022-10-19T02:00:56;12.00;99.90
9193;DHT22;4631;49.296;10.560;2022-10-19T02:03:25;12.10;99.90
9193;DHT22;4631;49.296;10.560;2022-10-19T02:05:52;12.10;99.90
9193;DHT22;4631;49.296;10.560;2022-10-19T02:08:21;12.10;99.90
9193;DHT22;4631;49.296;10.560;2022-10-19T02:10:50;12.10;99.90
9193;DHT22;4631;49.296;10.560;2022-10-19T02:13:17;12.10;99.90
9193;DHT22;4631;49.296;10.560;2022-10-19T02:15:45;12.10;99.90
9193;DHT22;4631;49.296;10.560;2022-10-19T02:18:12;12.10;99.90
9193;DHT22;4631;49.296;10.560;2022-10-19T02:20:42;12.10;99.90
9193;DHT22;4631;49.296;10.560;2022-10-19T02:23:08;12.10;99.90
9193;DHT22;4631;49.296;10.560;2022-10-19T02:25:35;12.20;99.90
9193;DHT22;4631;49.296;10.560;2022-10-19T02:28:02;12.10;99.90
9193;DHT22;4631;49.296;10.560;2022-10-19T02:30:30;12.20;99.90
9193;DHT22;4631;49.296;10.560;2022-10-19T02:32:56;12.20;99.90
9193;DHT22;4631;49.296;10.560;2022-10-19T02:35:23;12.20;99.90
9193;DHT22;4631;49.296;10.560;2022-10-19T02:37:51;12.20;99.90
9193;DHT22;4631;49.296;10.560;2022-10-19T02:40:18;12.20;99.90
9193;DHT22;4631;49.296;10.560;2022-10-19T02:42:47;12.20;99.90
9193;DHT22;4631;49.296;10.560;2022-10-19T02:45:16;12.20;99.90
9193;DHT22;4631;49.296;10.560;2022-10-19T02:47:46;12.20;99.90
9193;DHT22;4631;49.296;10.560;2022-10-19T02:50:13;12.20;99.90
9193;DHT22;4631;49.296;10.560;2022-10-19T02:52:40;12.20;99.90
9193;DHT22;4631;49.296;10.560;2022-10-19T02:55:08;12.20;99.90
9193;DHT22;4631;49.296;10.560;2022-10-19T02:57:35;12.30;99.90
9193;DHT22;4631;49.296;10.560;2022-10-19T03:00:03;12.30;99.90
9193;DHT22;4631;49.296;10.560;2022-10-19T03:02:29;12.30;99.90
9193;DHT22;4631;49.296;10.560;2022-10-19T03:04:56;12.30;99.90
9193;DHT22;4631;49.296;10.560;2022-10-19T03:07:23;12.30;99.90
9193;DHT22;4631;49.296;10.560;2022-10-19T03:09:49;12.30;99.90
9193;DHT22;4631;49.296;10.560;2022-10-19T03:12:17;12.30;99.90
9193;DHT22;4631;49.296;10.560;2022-10-19T03:14:44;12.30;99.90
9193;DHT22;4631;49.296;10.560;2022-10-19T03:17:10;12.30;99.90
9193;DHT22;4631;49.296;10.560;2022-10-19T03:19:37;12.30;99.90
9193;DHT22;4631;49.296;10.560;2022-10-19T03:22:04;12.30;99.90
9193;DHT22;4631;49.296;10.560;2022-10-19T03:24:31;12.40;99.90
9193;DHT22;4631;49.296;10.560;2022-10-19T03:26:57;12.40;99.90
9193;DHT22;4631;49.296;10.560;2022-10-19T03:29:25;12.40;99.90
9193;DHT22;4631;49.296;10.560;2022-10-19T03:31:52;12.40;99.90
9193;DHT22;4631;49.296;10.560;2022-10-19T03:34:19;12.40;99.90
9193;DHT22;4631;49.296;10.560;2022-10-19T03:36:45;12.40;99.90
9193;DHT22;4631;49.296;10.560;2022-10-19T03:39:13;12.40;99.90
9193;DHT22;4631;49.296;10.560;2022-10-19T03:41:39;12.40;99.90
9193;DHT22;4631;49.296;10.560;2022-10-19T03:44:07;12.40;99.90
9193;DHT22;4631;49.296;10.560;2022-10-19T03:46:35;12.40;99.90
9193;DHT22;4631;49.296;10.560;2022-10-19T03:49:03;12.40;99.90
9193;DHT22;4631;49.296;10.560;2022-10-19T03:51:30;12.40;99.90
9193;DHT22;4631;49.296;10.560;2022-10-19T03:53:57;12.50;99.90
9193;DHT22;4631;49.296;10.560;2022-10-19T03:56:25;12.50;99.90
9193;DHT22;4631;49.296;10.560;2022-10-19T03:58:52;12.50;99.90
9193;DHT22;4631;49.296;10.560;2022-10-19T04:01:19;12.50;99.90
9193;DHT22;4631;49.296;10.560;2022-10-19T04:03:51;12.50;99.90
9193;DHT22;4631;49.296;10.560;2022-10-19T04:06:17;12.50;99.90
9193;DHT22;4631;49.296;10.560;2022-10-19T04:08:44;12.50;99.90
9193;DHT22;4631;49.296;10.560;2022-10-19T04:11:14;12.50;99.90
9193;DHT22;4631;49.296;10.560;2022-10-19T04:13:40;12.50;99.90
9193;DHT22;4631;49.296;10.560;2022-10-19T04:16:08;12.50;99.90
9193;DHT22;4631;49.296;10.560;2022-10-19T04:18:35;12.50;99.90
9193;DHT22;4631;49.296;10.560;2022-10-19T04:21:03;12.50;99.90
9193;DHT22;4631;49.296;10.560;2022-10-19T04:23:31;12.50;99.90
9193;DHT22;4631;49.296;10.560;2022-10-19T04:25:58;12.50;99.90
9193;DHT22;4631;49.296;10.560;2022-10-19T04:28:25;12.50;99.90
9193;DHT22;4631;49.296;10.560;2022-10-19T04:30:52;12.50;99.90
9193;DHT22;4631;49.296;10.560;2022-10-19T04:33:18;12.50;99.90
9193;DHT22;4631;49.296;10.560;2022-10-19T04:35:45;12.50;99.90
9193;DHT22;4631;49.296;10.560;2022-10-19T04:38:13;12.60;99.90
9193;DHT22;4631;49.296;10.560;2022-10-19T04:40:39;12.60;99.90
9193;DHT22;4631;49.296;10.560;2022-10-19T04:43:06;12.60;99.90
9193;DHT22;4631;49.296;10.560;2022-10-19T04:45:33;12.50;99.90
9193;DHT22;4631;49.296;10.560;2022-10-19T04:48:00;12.60;99.90
9193;DHT22;4631;49.296;10.560;2022-10-19T04:50:27;12.60;99.90
9193;DHT22;4631;49.296;10.560;2022-10-19T04:52:53;12.60;99.90
9193;DHT22;4631;49.296;10.560;2022-10-19T04:55:21;12.60;99.90
9193;DHT22;4631;49.296;10.560;2022-10-19T04:57:48;12.60;99.90
9193;DHT22;4631;49.296;10.560;2022-10-19T05:00:15;12.60;99.90
9193;DHT22;4631;49.296;10.560;2022-10-19T05:02:42;12.60;99.90
9193;DHT22;4631;49.296;10.560;2022-10-19T05:05:08;12.70;99.90
9193;DHT22;4631;49.296;10.560;2022-10-19T05:07:35;12.70;99.90
9193;DHT22;4631;49.296;10.560;2022-10-19T05:10:02;12.70;99.90
9193;DHT22;4631;49.296;10.560;2022-10-19T05:12:30;12.70;99.90
9193;DHT22;4631;49.296;10.560;2022-10-19T05:14:56;12.70;99.90
9193;DHT22;4631;49.296;10.560;2022-10-19T05:17:23;12.70;99.90
9193;DHT22;4631;49.296;10.560;2022-10-19T05:19:49;12.70;99.90
9193;DHT22;4631;49.296;10.560;2022-10-19T05:22:16;12.70;99.90
9193;DHT22;4631;49.296;10.560;2022-10-19T05:24:42;12.70;99.90
9193;DHT22;4631;49.296;10.560;2022-10-19T05:27:09;12.70;99.90
9193;DHT22;4631;49.296;10.560;2022-10-19T05:29:37;12.70;99.90
9193;DHT22;4631;49.296;10.560;2022-10-19T05:32:04;12.80;99.90
9193;DHT22;4631;49.296;10.560;2022-10-19T05:34:31;12.80;99.90
9193;DHT22;4631;49.296;10.560;2022-10-19T05:36:57;12.80;99.90
9193;DHT22;4631;49.296;10.560;2022-10-19T05:39:24;12.80;99.90
9193;DHT22;4631;49.296;10.560;2022-10-19T05:41:51;12.80;99.90
9193;DHT22;4631;49.296;10.560;2022-10-19T05:44:18;12.80;99.90
9193;DHT22;4631;49.296;10.560;2022-10-19T05:46:47;12.80;99.90
9193;DHT22;4631;49.296;10.560;2022-10-19T05:49:14;12.80;99.90
9193;DHT22;4631;49.296;10.560;2022-10-19T05:51:41;12.80;99.90
9193;DHT22;4631;49.296;10.560;2022-10-19T05:54:08;12.70;99.90
9193;DHT22;4631;49.296;10.560;2022-10-19T05:56:35;12.70;99.90
9193;DHT22;4631;49.296;10.560;2022-10-19T05:59:03;12.70;99.90
9193;DHT22;4631;49.296;10.560;2022-10-19T06:01:30;12.70;99.90
9193;DHT22;4631;49.296;10.560;2022-10-19T06:03:58;12.80;99.90
9193;DHT22;4631;49.296;10.560;2022-10-19T06:06:25;12.80;99.90
9193;DHT22;4631;49.296;10.560;2022-10-19T06:08:52;12.80;99.90
9193;DHT22;4631;49.296;10.560;2022-10-19T06:11:20;12.80;99.90
9193;DHT22;4631;49.296;10.560;2022-10-19T06:13:48;12.80;99.90
9193;DHT22;4631;49.296;10.560;2022-10-19T06:16:15;12.90;99.90
9193;DHT22;4631;49.296;10.560;2022-10-19T06:18:42;12.80;99.90
9193;DHT22;4631;49.296;10.560;2022-10-19T06:21:11;12.80;99.90
9193;DHT22;4631;49.296;10.560;2022-10-19T06:23:38;12.80;99.90
9193;DHT22;4631;49.296;10.560;2022-10-19T06:26:06;12.90;99.90
9193;DHT22;4631;49.296;10.560;2022-10-19T06:28:33;12.90;99.90
9193;DHT22;4631;49.296;10.560;2022-10-19T06:30:59;12.90;99.90
9193;DHT22;4631;49.296;10.560;2022-10-19T06:33:26;13.00;99.90
9193;DHT22;4631;49.296;10.560;2022-10-19T06:35:54;13.00;99.90
9193;DHT22;4631;49.296;10.560;2022-10-19T06:38:22;12.90;99.90
9193;DHT22;4631;49.296;10.560;2022-10-19T06:40:48;12.90;99.90
9193;DHT22;4631;49.296;10.560;2022-10-19T06:43:15;13.00;99.90
9193;DHT22;4631;49.296;10.560;2022-10-19T06:45:41;13.00;99.90
9193;DHT22;4631;49.296;10.560;2022-10-19T06:48:08;13.00;99.90
9193;DHT22;4631;49.296;10.560;2022-10-19T06:50:35;13.00;99.90
9193;DHT22;4631;49.296;10.560;2022-10-19T06:53:01;13.00;99.90
9193;DHT22;4631;49.296;10.560;2022-10-19T06:55:29;13.00;99.90
9193;DHT22;4631;49.296;10.560;2022-10-19T06:57:56;13.00;99.90
9193;DHT22;4631;49.296;10.560;2022-10-19T07:00:23;13.00;99.90
9193;DHT22;4631;49.296;10.560;2022-10-19T07:02:50;13.00;99.90
9193;DHT22;4631;49.296;10.560;2022-10-19T07:05:16;13.00;99.90
9193;DHT22;4631;49.296;10.560;2022-10-19T07:07:43;13.00;99.90
9193;DHT22;4631;49.296;10.560;2022-10-19T07:10:10;13.10;99.90
9193;DHT22;4631;49.296;10.560;2022-10-19T07:12:38;13.10;99.90
9193;DHT22;4631;49.296;10.560;2022-10-19T07:15:05;13.10;99.90
9193;DHT22;4631;49.296;10.560;2022-10-19T07:17:32;13.10;99.90
9193;DHT22;4631;49.296;10.560;2022-10-19T07:19:59;13.10;99.90
9193;DHT22;4631;49.296;10.560;2022-10-19T07:22:25;13.10;99.90
9193;DHT22;4631;49.296;10.560;2022-10-19T07:24:52;13.10;99.90
9193;DHT22;4631;49.296;10.560;2022-10-19T07:27:18;13.00;99.90
9193;DHT22;4631;49.296;10.560;2022-10-19T07:29:46;13.00;99.90
9193;DHT22;4631;49.296;10.560;2022-10-19T07:32:13;13.00;99.90
9193;DHT22;4631;49.296;10.560;2022-10-19T07:34:40;13.10;99.90
9193;DHT22;4631;49.296;10.560;2022-10-19T07:37:06;13.10;99.90
9193;DHT22;4631;49.296;10.560;2022-10-19T07:39:33;13.10;99.90
9193;DHT22;4631;49.296;10.560;2022-10-19T07:41:59;13.10;99.90
9193;DHT22;4631;49.296;10.560;2022-10-19T07:44:26;13.10;99.90
9193;DHT22;4631;49.296;10.560;2022-10-19T07:46:54;13.10;99.90
9193;DHT22;4631;49.296;10.560;2022-10-19T07:49:22;13.20;99.90
9193;DHT22;4631;49.296;10.560;2022-10-19T07:51:48;13.20;99.90
9193;DHT22;4631;49.296;10.560;2022-10-19T07:54:18;13.20;99.90
9193;DHT22;4631;49.296;10.560;2022-10-19T07:56:44;13.20;99.90
9193;DHT22;4631;49.296;10.560;2022-10-19T07:59:11;13.30;99.90
9193;DHT22;4631;49.296;10.560;2022-10-19T08:01:40;13.30;99.90
9193;DHT22;4631;49.296;10.560;2022-10-19T08:04:09;13.30;99.90
9193;DHT22;4631;49.296;10.560;2022-10-19T08:06:36;13.30;99.90
9193;DHT22;4631;49.296;10.560;2022-10-19T08:09:02;13.30;99.90
9193;DHT22;4631;49.296;10.560;2022-10-19T08:11:30;13.30;99.90
9193;DHT22;4631;49.296;10.560;2022-10-19T08:13:57;13.30;99.90
9193;DHT22;4631;49.296;10.560;2022-10-19T08:16:24;13.30;99.90
9193;DHT22;4631;49.296;10.560;2022-10-19T08:18:51;13.30;99.90
9193;DHT22;4631;49.296;10.560;2022-10-19T08:21:20;13.40;99.90
9193;DHT22;4631;49.296;10.560;2022-10-19T08:23:46;13.40;99.90
9193;DHT22;4631;49.296;10.560;2022-10-19T08:26:13;13.40;99.90
9193;DHT22;4631;49.296;10.560;2022-10-19T08:28:39;13.50;99.90
9193;DHT22;4631;49.296;10.560;2022-10-19T08:31:09;13.50;99.90
9193;DHT22;4631;49.296;10.560;2022-10-19T08:33:36;13.50;99.90
9193;DHT22;4631;49.296;10.560;2022-10-19T08:36:04;13.50;99.90
9193;DHT22;4631;49.296;10.560;2022-10-19T08:38:32;13.50;99.90
9193;DHT22;4631;49.296;10.560;2022-10-19T08:41:02;13.50;99.90
9193;DHT22;4631;49.296;10.560;2022-10-19T08:43:32;13.50;99.90
9193;DHT22;4631;49.296;10.560;2022-10-19T08:46:00;13.50;99.90
9193;DHT22;4631;49.296;10.560;2022-10-19T08:48:28;13.50;99.90
9193;DHT22;4631;49.296;10.560;2022-10-19T08:50:57;13.50;99.90
9193;DHT22;4631;49.296;10.560;2022-10-19T08:53:26;13.50;99.90
9193;DHT22;4631;49.296;10.560;2022-10-19T08:56:02;13.50;99.90
9193;DHT22;4631;49.296;10.560;2022-10-19T08:58:43;13.50;99.90
9193;DHT22;4631;49.296;10.560;2022-10-19T09:01:14;13.50;99.90
9193;DHT22;4631;49.296;10.560;2022-10-19T09:03:44;13.50;99.90
9193;DHT22;4631;49.296;10.560;2022-10-19T09:06:15;13.50;99.90
9193;DHT22;4631;49.296;10.560;2022-10-19T09:08:45;13.50;99.90
9193;DHT22;4631;49.296;10.560;2022-10-19T09:11:14;13.50;99.90
9193;DHT22;4631;49.296;10.560;2022-10-19T09:13:44;13.50;99.90
9193;DHT22;4631;49.296;10.560;2022-10-19T09:16:11;13.50;99.90
9193;DHT22;4631;49.296;10.560;2022-10-19T09:18:38;13.50;99.90
9193;DHT22;4631;49.296;10.560;2022-10-19T09:21:08;13.50;99.90
9193;DHT22;4631;49.296;10.560;2022-10-19T09:23:38;13.50;99.90
9193;DHT22;4631;49.296;10.560;2022-10-19T09:26:08;13.50;99.90
9193;DHT22;4631;49.296;10.560;2022-10-19T09:28:43;13.60;99.90
9193;DHT22;4631;49.296;10.560;2022-10-19T09:31:11;13.70;99.90
9193;DHT22;4631;49.296;10.560;2022-10-19T09:33:40;13.70;99.90
9193;DHT22;4631;49.296;10.560;2022-10-19T09:36:07;13.80;99.90
9193;DHT22;4631;49.296;10.560;2022-10-19T09:38:34;13.80;99.90
9193;DHT22;4631;49.296;10.560;2022-10-19T09:41:06;13.90;99.90
9193;DHT22;4631;49.296;10.560;2022-10-19T09:43:50;13.90;99.90
9193;DHT22;4631;49.296;10.560;2022-10-19T09:46:23;13.90;99.90
9193;DHT22;4631;49.296;10.560;2022-10-19T09:48:52;13.90;99.90
9193;DHT22;4631;49.296;10.560;2022-10-19T09:51:19;13.90;99.90
9193;DHT22;4631;49.296;10.560;2022-10-19T09:53:46;14.00;99.90
9193;DHT22;4631;49.296;10.560;2022-10-19T09:56:16;14.00;99.90
9193;DHT22;4631;49.296;10.560;2022-10-19T09:58:46;14.00;99.90
9193;DHT22;4631;49.296;10.560;2022-10-19T10:01:27;13.90;99.90
9193;DHT22;4631;49.296;10.560;2022-10-19T10:04:03;13.90;99.90
9193;DHT22;4631;49.296;10.560;2022-10-19T10:06:30;13.90;99.90
9193;DHT22;4631;49.296;10.560;2022-10-19T10:08:57;13.80;99.90
9193;DHT22;4631;49.296;10.560;2022-10-19T10:11:24;13.80;99.90
9193;DHT22;4631;49.296;10.560;2022-10-19T10:13:52;13.80;99.90
9193;DHT22;4631;49.296;10.560;2022-10-19T10:16:21;13.70;99.90
9193;DHT22;4631;49.296;10.560;2022-10-19T10:18:50;13.70;99.90
9193;DHT22;4631;49.296;10.560;2022-10-19T10:21:19;13.70;99.90
9193;DHT22;4631;49.296;10.560;2022-10-19T10:23:57;13.60;99.90
9193;DHT22;4631;49.296;10.560;2022-10-19T10:26:23;13.60;99.90
9193;DHT22;4631;49.296;10.560;2022-10-19T10:28:50;13.60;99.90
9193;DHT22;4631;49.296;10.560;2022-10-19T10:31:22;13.70;99.90
9193;DHT22;4631;49.296;10.560;2022-10-19T10:33:53;13.70;99.90
9193;DHT22;4631;49.296;10.560;2022-10-19T10:36:22;13.70;99.90
9193;DHT22;4631;49.296;10.560;2022-10-19T10:38:49;13.80;99.90
9193;DHT22;4631;49.296;10.560;2022-10-19T10:41:18;13.80;99.90
9193;DHT22;4631;49.296;10.560;2022-10-19T10:43:48;13.90;99.90
9193;DHT22;4631;49.296;10.560;2022-10-19T10:46:18;13.90;99.90
9193;DHT22;4631;49.296;10.560;2022-10-19T10:48:51;13.90;99.90
9193;DHT22;4631;49.296;10.560;2022-10-19T10:51:19;14.00;99.90
9193;DHT22;4631;49.296;10.560;2022-10-19T10:53:46;14.10;99.90
9193;DHT22;4631;49.296;10.560;2022-10-19T10:56:18;14.10;99.90
9193;DHT22;4631;49.296;10.560;2022-10-19T10:58:47;14.10;99.90
9193;DHT22;4631;49.296;10.560;2022-10-19T11:01:17;14.20;99.90
9193;DHT22;4631;49.296;10.560;2022-10-19T11:03:46;14.30;99.90
9193;DHT22;4631;49.296;10.560;2022-10-19T11:06:15;14.40;99.90
9193;DHT22;4631;49.296;10.560;2022-10-19T11:08:44;14.50;99.90
9193;DHT22;4631;49.296;10.560;2022-10-19T11:11:13;14.50;99.90
9193;DHT22;4631;49.296;10.560;2022-10-19T11:13:41;14.50;99.90
9193;DHT22;4631;49.296;10.560;2022-10-19T11:16:11;14.70;99.90
9193;DHT22;4631;49.296;10.560;2022-10-19T11:18:39;14.80;99.90
9193;DHT22;4631;49.296;10.560;2022-10-19T11:21:08;14.90;99.90
9193;DHT22;4631;49.296;10.560;2022-10-19T11:23:41;15.00;99.90
9193;DHT22;4631;49.296;10.560;2022-10-19T11:26:16;15.10;99.90
9193;DHT22;4631;49.296;10.560;2022-10-19T11:28:48;15.20;99.90
9193;DHT22;4631;49.296;10.560;2022-10-19T11:31:21;15.10;99.90
9193;DHT22;4631;49.296;10.560;2022-10-19T11:33:51;15.00;99.90
9193;DHT22;4631;49.296;10.560;2022-10-19T11:36:31;15.00;99.90
9193;DHT22;4631;49.296;10.560;2022-10-19T11:39:08;14.90;99.90
9193;DHT22;4631;49.296;10.560;2022-10-19T11:41:42;14.90;99.90
9193;DHT22;4631;49.296;10.560;2022-10-19T11:44:15;14.90;99.90
9193;DHT22;4631;49.296;10.560;2022-10-19T11:46:46;14.90;99.90
9193;DHT22;4631;49.296;10.560;2022-10-19T11:49:20;14.80;99.90
9193;DHT22;4631;49.296;10.560;2022-10-19T11:51:51;14.80;99.90
9193;DHT22;4631;49.296;10.560;2022-10-19T11:54:26;14.70;99.90
9193;DHT22;4631;49.296;10.560;2022-10-19T11:56:56;14.70;99.90
9193;DHT22;4631;49.296;10.560;2022-10-19T11:59:26;14.60;99.90
9193;DHT22;4631;49.296;10.560;2022-10-19T12:01:57;14.70;99.90
9193;DHT22;4631;49.296;10.560;2022-10-19T12:04:28;14.70;99.90
9193;DHT22;4631;49.296;10.560;2022-10-19T12:07:08;14.70;99.90
9193;DHT22;4631;49.296;10.560;2022-10-19T12:09:42;14.60;99.90
9193;DHT22;4631;49.296;10.560;2022-10-19T12:12:18;14.60;99.90
9193;DHT22;4631;49.296;10.560;2022-10-19T12:14:47;14.60;99.90
9193;DHT22;4631;49.296;10.560;2022-10-19T12:17:17;14.60;99.90
9193;DHT22;4631;49.296;10.560;2022-10-19T12:19:46;14.60;99.90
9193;DHT22;4631;49.296;10.560;2022-10-19T12:22:15;14.60;99.90
9193;DHT22;4631;49.296;10.560;2022-10-19T12:24:43;14.50;99.90
9193;DHT22;4631;49.296;10.560;2022-10-19T12:27:11;14.40;99.90
9193;DHT22;4631;49.296;10.560;2022-10-19T12:29:39;14.30;99.90
9193;DHT22;4631;49.296;10.560;2022-10-19T12:32:07;14.30;99.90
9193;DHT22;4631;49.296;10.560;2022-10-19T12:34:40;14.30;99.90
9193;DHT22;4631;49.296;10.560;2022-10-19T12:37:10;14.20;99.90
9193;DHT22;4631;49.296;10.560;2022-10-19T12:39:40;14.10;99.90
9193;DHT22;4631;49.296;10.560;2022-10-19T12:42:12;14.00;99.90
9193;DHT22;4631;49.296;10.560;2022-10-19T12:47:26;13.80;99.90
9193;DHT22;4631;49.296;10.560;2022-10-19T12:49:53;13.70;99.90
9193;DHT22;4631;49.296;10.560;2022-10-19T12:52:34;13.50;99.90
9193;DHT22;4631;49.296;10.560;2022-10-19T12:55:11;13.50;99.90
9193;DHT22;4631;49.296;10.560;2022-10-19T12:57:39;13.50;99.90
9193;DHT22;4631;49.296;10.560;2022-10-19T13:00:17;13.40;99.90
9193;DHT22;4631;49.296;10.560;2022-10-19T13:02:44;13.50;99.90
9193;DHT22;4631;49.296;10.560;2022-10-19T13:05:18;13.50;99.90
9193;DHT22;4631;49.296;10.560;2022-10-19T13:07:46;13.40;99.90
9193;DHT22;4631;49.296;10.560;2022-10-19T13:10:17;13.40;99.90
9193;DHT22;4631;49.296;10.560;2022-10-19T13:12:46;13.50;99.90
9193;DHT22;4631;49.296;10.560;2022-10-19T13:17:54;13.60;99.90
9193;DHT22;4631;49.296;10.560;2022-10-19T13:28:47;13.60;99.90
9193;DHT22;4631;49.296;10.560;2022-10-19T13:31:24;13.60;99.90
9193;DHT22;4631;49.296;10.560;2022-10-19T13:33:51;13.60;99.90
9193;DHT22;4631;49.296;10.560;2022-10-19T13:36:18;13.70;99.90
9193;DHT22;4631;49.296;10.560;2022-10-19T13:38:46;13.80;99.90
9193;DHT22;4631;49.296;10.560;2022-10-19T13:41:17;13.90;99.90
9193;DHT22;4631;49.296;10.560;2022-10-19T13:43:51;14.00;99.90
9193;DHT22;4631;49.296;10.560;2022-10-19T13:46:21;14.10;99.90
9193;DHT22;4631;49.296;10.560;2022-10-19T13:51:35;14.20;99.90
9193;DHT22;4631;49.296;10.560;2022-10-19T13:54:09;14.30;99.90
9193;DHT22;4631;49.296;10.560;2022-10-19T13:56:43;14.40;99.90
9193;DHT22;4631;49.296;10.560;2022-10-19T14:04:41;14.40;99.90
9193;DHT22;4631;49.296;10.560;2022-10-19T14:07:10;14.40;99.90
9193;DHT22;4631;49.296;10.560;2022-10-19T14:09:52;14.40;99.90
9193;DHT22;4631;49.296;10.560;2022-10-19T14:12:23;14.50;99.90
9193;DHT22;4631;49.296;10.560;2022-10-19T14:14:50;14.60;99.90
9193;DHT22;4631;49.296;10.560;2022-10-19T14:17:19;14.70;99.90
9193;DHT22;4631;49.296;10.560;2022-10-19T14:19:50;14.70;99.90
9193;DHT22;4631;49.296;10.560;2022-10-19T14:22:28;14.80;99.90
9193;DHT22;4631;49.296;10.560;2022-10-19T14:24:59;14.80;99.90
9193;DHT22;4631;49.296;10.560;2022-10-19T14:27:26;15.00;99.90
9193;DHT22;4631;49.296;10.560;2022-10-19T14:29:53;15.10;99.90
9193;DHT22;4631;49.296;10.560;2022-10-19T14:32:21;15.20;99.90
9193;DHT22;4631;49.296;10.560;2022-10-19T14:34:50;15.30;99.90
9193;DHT22;4631;49.296;10.560;2022-10-19T14:37:17;15.20;99.90
9193;DHT22;4631;49.296;10.560;2022-10-19T14:39:55;15.20;99.90
9193;DHT22;4631;49.296;10.560;2022-10-19T14:42:23;15.20;99.90
9193;DHT22;4631;49.296;10.560;2022-10-19T14:44:49;15.00;99.90
9193;DHT22;4631;49.296;10.560;2022-10-19T14:47:18;14.90;99.90
9193;DHT22;4631;49.296;10.560;2022-10-19T14:49:45;14.80;99.90
9193;DHT22;4631;49.296;10.560;2022-10-19T14:52:14;14.80;99.90
9193;DHT22;4631;49.296;10.560;2022-10-19T14:54:41;14.90;99.90
9193;DHT22;4631;49.296;10.560;2022-10-19T14:59:42;15.10;99.90
9193;DHT22;4631;49.296;10.560;2022-10-19T15:02:12;15.10;99.90
9193;DHT22;4631;49.296;10.560;2022-10-19T15:04:40;15.20;99.90
9193;DHT22;4631;49.296;10.560;2022-10-19T15:07:14;15.20;99.90
9193;DHT22;4631;49.296;10.560;2022-10-19T15:09:43;15.20;99.90
9193;DHT22;4631;49.296;10.560;2022-10-19T15:12:13;15.20;99.90
9193;DHT22;4631;49.296;10.560;2022-10-19T15:14:41;15.20;99.90
9193;DHT22;4631;49.296;10.560;2022-10-19T15:17:19;15.10;99.90
9193;DHT22;4631;49.296;10.560;2022-10-19T15:19:46;15.00;99.90
9193;DHT22;4631;49.296;10.560;2022-10-19T15:22:18;14.90;99.90
9193;DHT22;4631;49.296;10.560;2022-10-19T15:25:01;14.90;99.90
9193;DHT22;4631;49.296;10.560;2022-10-19T15:27:43;14.90;99.90
9193;DHT22;4631;49.296;10.560;2022-10-19T15:30:26;14.80;99.90
9193;DHT22;4631;49.296;10.560;2022-10-19T15:32:55;14.70;99.90
9193;DHT22;4631;49.296;10.560;2022-10-19T15:35:24;14.60;99.90
9193;DHT22;4631;49.296;10.560;2022-10-19T15:38:00;14.50;99.90
9193;DHT22;4631;49.296;10.560;2022-10-19T15:40:28;14.50;99.90
9193;DHT22;4631;49.296;10.560;2022-10-19T15:42:56;14.50;99.90
9193;DHT22;4631;49.296;10.560;2022-10-19T15:45:27;14.50;99.90
9193;DHT22;4631;49.296;10.560;2022-10-19T15:50:36;14.50;99.90
9193;DHT22;4631;49.296;10.560;2022-10-19T15:53:06;14.50;99.90
9193;DHT22;4631;49.296;10.560;2022-10-19T15:55:32;14.50;99.90
9193;DHT22;4631;49.296;10.560;2022-10-19T15:57:59;14.50;99.90
9193;DHT22;4631;49.296;10.560;2022-10-19T16:00:26;14.40;99.90
9193;DHT22;4631;49.296;10.560;2022-10-19T16:02:53;14.40;99.90
9193;DHT22;4631;49.296;10.560;2022-10-19T16:05:20;14.30;99.90
9193;DHT22;4631;49.296;10.560;2022-10-19T16:07:47;14.30;99.90
9193;DHT22;4631;49.296;10.560;2022-10-19T16:10:16;14.30;99.90
9193;DHT22;4631;49.296;10.560;2022-10-19T16:12:43;14.20;99.90
9193;DHT22;4631;49.296;10.560;2022-10-19T16:15:10;14.20;99.90
9193;DHT22;4631;49.296;10.560;2022-10-19T16:17:37;14.10;99.90
9193;DHT22;4631;49.296;10.560;2022-10-19T16:20:04;14.10;99.90
9193;DHT22;4631;49.296;10.560;2022-10-19T16:22:31;14.00;99.90
9193;DHT22;4631;49.296;10.560;2022-10-19T16:24:58;14.00;99.90